Time;durP1;ratioP1;P1;durP2;ratioP2;P2;SDS_P1;SDS_P2;PMS_P1;PMS_P2;Temp;Humidity;BMP_temperature;BMP_pressure;BME280_temperature;BME280_humidity;BME280_pressure;Samples;Min_cycle;Max_cycle;Signal;HPM_P1;HPM_P2
2022/07/04 00:00:15;;;;;;;9.43;6.50;;;;;;;22.32;51.10;94118.72;5022188;28;20026;-79
2022/07/04 00:02:42;;;;;;;6.45;5.78;;;;;;;22.43;50.71;94133.09;5023539;28;20033;-78
2022/07/04 00:05:10;;;;;;;6.90;6.20;;;;;;;22.49;51.17;94142.38;5025454;28;20026;-79
2022/07/04 00:07:38;;;;;;;6.32;5.72;;;;;;;22.48;50.50;94130.03;5037930;28;20052;-77
2022/07/04 00:10:05;;;;;;;6.25;5.65;;;;;;;22.59;50.76;94136.25;5020556;28;20108;-78
2022/07/04 00:12:30;;;;;;;6.82;6.05;;;;;;;22.12;51.49;94118.97;5027310;28;20042;-77
2022/07/04 00:14:56;;;;;;;7.13;5.20;;;;;;;22.05;50.46;94140.59;5018714;28;20043;-78
2022/07/04 00:17:21;;;;;;;7.97;5.82;;;;;;;22.04;50.92;94133.63;5022565;28;20466;-78
2022/07/04 00:19:46;;;;;;;7.18;5.93;;;;;;;22.29;50.56;94145.41;5021828;28;20317;-78
2022/07/04 00:22:12;;;;;;;6.97;5.50;;;;;;;22.38;50.18;94144.28;5022552;28;20044;-77
2022/07/04 00:24:37;;;;;;;6.40;5.60;;;;;;;22.41;49.96;94140.81;5021207;28;20331;-78
2022/07/04 00:27:03;;;;;;;7.43;5.80;;;;;;;22.41;49.99;94136.19;5020429;28;20042;-80
2022/07/04 00:29:29;;;;;;;7.20;5.75;;;;;;;22.42;50.33;94131.53;5019420;28;20589;-77
2022/07/04 00:31:55;;;;;;;10.23;6.13;;;;;;;22.26;50.10;94089.28;5022032;28;20109;-78
2022/07/04 00:34:20;;;;;;;6.75;6.03;;;;;;;22.42;50.35;94120.69;5024022;28;20063;-77
2022/07/04 00:36:46;;;;;;;7.20;6.07;;;;;;;22.06;50.62;94074.44;5020088;28;20398;-78
2022/07/04 00:39:11;;;;;;;7.72;5.80;;;;;;;22.41;49.93;94119.13;5020940;28;20076;-80
2022/07/04 00:41:37;;;;;;;7.00;6.10;;;;;;;22.28;50.05;94088.91;5022820;28;20683;-77
2022/07/04 00:44:08;;;;;;;6.53;5.82;;;;;;;22.45;50.00;94119.94;5021586;28;20029;-78
2022/07/04 00:46:34;;;;;;;7.07;5.72;;;;;;;22.30;50.43;94111.72;5021159;28;20162;-78
2022/07/04 00:49:01;;;;;;;8.10;5.95;;;;;;;22.29;50.35;94118.31;5017216;28;20041;-79
2022/07/04 00:51:26;;;;;;;6.65;5.70;;;;;;;22.13;50.20;94104.28;5018633;28;20105;-78
2022/07/04 00:53:53;;;;;;;7.18;5.95;;;;;;;22.24;50.52;94126.03;5020039;28;20041;-78
2022/07/04 00:56:23;;;;;;;6.90;5.47;;;;;;;22.19;50.43;94108.16;5022402;28;20224;-79
2022/07/04 00:58:50;;;;;;;8.07;6.07;;;;;;;22.14;50.68;94116.66;5027166;28;20564;-78
2022/07/04 01:01:16;;;;;;;6.85;5.53;;;;;;;22.08;50.30;94101.94;5023144;28;20045;-77
2022/07/04 01:03:42;;;;;;;5.82;5.32;;;;;;;21.96;50.80;94085.97;5021312;28;20033;-77
2022/07/04 01:06:10;;;;;;;5.95;5.13;;;;;;;21.96;51.03;94099.53;5021974;28;20061;-78
2022/07/04 01:08:39;;;;;;;6.32;5.40;;;;;;;21.96;50.79;94110.34;5026697;28;20045;-78
2022/07/04 01:11:05;;;;;;;5.45;4.95;;;;;;;21.84;51.00;94092.50;5026101;28;20037;-79
2022/07/04 01:13:30;;;;;;;6.88;6.18;;;;;;;21.78;50.96;94098.66;5022393;28;20121;-78
2022/07/04 01:15:55;;;;;;;7.65;5.75;;;;;;;21.63;51.18;94086.16;5020625;28;20038;-77
2022/07/04 01:18:21;;;;;;;5.38;4.88;;;;;;;21.70;51.21;94097.84;5019757;28;20037;-79
2022/07/04 01:20:46;;;;;;;5.53;4.85;;;;;;;21.79;50.79;94111.03;5035693;28;20017;-77
2022/07/04 01:23:12;;;;;;;9.40;5.07;;;;;;;21.69;50.59;94095.50;5019791;28;20026;-78
2022/07/04 01:25:37;;;;;;;6.43;5.05;;;;;;;21.53;50.96;94082.19;5023563;28;20037;-79
2022/07/04 01:28:03;;;;;;;5.80;5.07;;;;;;;21.63;50.63;94111.31;5028611;28;20045;-78
2022/07/04 01:30:30;;;;;;;5.57;4.38;;;;;;;21.58;50.11;94108.16;5027220;28;20672;-78
2022/07/04 01:32:56;;;;;;;5.63;5.10;;;;;;;21.73;50.13;94116.03;5028177;28;20413;-78
2022/07/04 01:35:22;;;;;;;5.40;4.50;;;;;;;21.73;50.52;94118.72;5029431;28;20152;-78
2022/07/04 01:37:48;;;;;;;8.43;5.78;;;;;;;21.61;50.46;94088.50;5025541;28;20544;-78
2022/07/04 01:40:14;;;;;;;5.95;5.00;;;;;;;21.29;50.16;94048.41;5025596;28;20045;-79
2022/07/04 01:42:40;;;;;;;6.30;4.80;;;;;;;21.70;50.65;94118.72;5027845;28;20041;-79
2022/07/04 01:45:07;;;;;;;11.73;6.07;;;;;;;21.31;50.79;94065.03;5026023;28;20076;-79
2022/07/04 01:47:33;;;;;;;5.70;5.15;;;;;;;21.73;50.82;94118.72;5027573;28;20089;-78
2022/07/04 01:49:59;;;;;;;6.03;5.32;;;;;;;21.64;51.08;94128.31;5027636;28;20041;-78
2022/07/04 01:52:24;;;;;;;6.15;5.50;;;;;;;21.53;51.41;94113.91;5027722;28;20044;-78
2022/07/04 01:54:50;;;;;;;5.13;4.63;;;;;;;21.52;51.75;94126.66;5028385;28;20030;-78
2022/07/04 01:57:15;;;;;;;7.10;5.70;;;;;;;21.44;51.35;94117.69;5030212;28;20056;-78
2022/07/04 02:02:25;;;;;;;5.75;5.15;;;;;;;21.37;51.78;94128.47;5029193;28;20028;-78
2022/07/04 02:04:51;;;;;;;5.70;5.10;;;;;;;21.14;51.93;94098.13;5027571;28;20117;-78
2022/07/04 02:07:16;;;;;;;6.43;5.72;;;;;;;20.95;51.46;94071.28;5027983;28;20097;-78
2022/07/04 02:09:42;;;;;;;5.72;5.03;;;;;;;21.15;51.57;94096.97;5027007;28;20034;-79
2022/07/04 02:14:51;;;;;;;7.53;5.53;;;;;;;21.21;51.55;94109.00;5027760;28;20029;-78
2022/07/04 02:17:17;;;;;;;7.22;4.93;;;;;;;21.09;52.18;94101.16;5025283;28;20033;-79
2022/07/04 02:19:42;;;;;;;5.78;4.68;;;;;;;21.14;52.26;94118.97;5027457;28;20508;-78
2022/07/04 02:22:07;;;;;;;5.63;5.13;;;;;;;21.00;52.60;94116.91;5025512;28;20034;-78
2022/07/04 02:24:33;;;;;;;6.30;5.45;;;;;;;20.62;52.50;94057.81;5028175;28;20034;-78
2022/07/04 02:26:58;;;;;;;7.00;5.50;;;;;;;20.99;52.82;94126.94;5026979;28;20828;-78
2022/07/04 02:29:24;;;;;;;9.98;6.00;;;;;;;20.77;52.89;94106.22;5026374;28;20227;-78
2022/07/04 02:31:49;;;;;;;6.45;5.35;;;;;;;20.69;52.39;94093.00;5028628;28;20440;-78
2022/07/04 02:34:15;;;;;;;7.13;5.88;;;;;;;20.66;52.89;94099.94;5028883;28;20026;-78
2022/07/04 02:36:40;;;;;;;7.38;5.50;;;;;;;20.78;52.68;94120.50;5032790;28;20053;-79
2022/07/04 02:39:06;;;;;;;7.80;5.43;;;;;;;20.67;52.63;94123.09;5031863;28;20025;-79
2022/07/04 02:41:32;;;;;;;5.20;4.70;;;;;;;20.74;52.67;94131.28;5032872;28;20648;-78
2022/07/04 02:43:58;;;;;;;8.13;5.57;;;;;;;20.75;52.43;94138.25;5030573;28;20032;-78
2022/07/04 02:46:24;;;;;;;6.65;4.47;;;;;;;20.61;52.65;94124.56;5031480;28;20049;-78
2022/07/04 02:48:50;;;;;;;7.05;5.03;;;;;;;20.48;52.85;94124.03;5032623;28;20065;-78
2022/07/04 02:51:15;;;;;;;5.40;4.82;;;;;;;20.51;52.93;94127.94;5033425;28;20042;-78
2022/07/04 02:53:41;;;;;;;6.10;4.65;;;;;;;20.47;52.27;94119.00;5032465;28;20040;-79
2022/07/04 02:56:06;;;;;;;6.03;4.68;;;;;;;20.56;52.07;94136.50;5033699;28;20057;-79
2022/07/04 02:58:32;;;;;;;5.32;4.03;;;;;;;20.69;51.75;94153.22;5030923;28;20064;-79
2022/07/04 03:00:59;;;;;;;4.22;3.88;;;;;;;20.72;51.58;94154.44;5032295;28;20038;-78
2022/07/04 03:03:24;;;;;;;5.93;4.40;;;;;;;20.70;51.42;94145.91;5033482;28;20037;-78
2022/07/04 03:05:50;;;;;;;4.45;3.63;;;;;;;20.70;51.04;94148.59;5028189;28;20087;-78
2022/07/04 03:08:15;;;;;;;4.32;3.85;;;;;;;20.75;50.68;94140.16;5020988;28;20053;-77
2022/07/04 03:10:40;;;;;;;4.20;3.50;;;;;;;20.73;51.03;94150.59;5022349;28;20061;-79
2022/07/04 03:13:06;;;;;;;4.47;4.05;;;;;;;20.64;51.06;94123.06;5020802;28;20041;-79
2022/07/04 03:15:31;;;;;;;4.43;4.00;;;;;;;20.83;51.06;94152.59;5021026;28;20103;-79
2022/07/04 03:17:57;;;;;;;6.22;3.92;;;;;;;20.82;51.56;94156.47;5021255;28;20030;-77
2022/07/04 03:20:22;;;;;;;5.13;4.07;;;;;;;20.71;51.61;94144.75;5022479;28;20483;-77
2022/07/04 03:22:48;;;;;;;5.28;4.65;;;;;;;20.59;51.75;94137.66;5022332;28;20036;-78
2022/07/04 03:25:14;;;;;;;4.45;4.05;;;;;;;20.80;51.90;94170.34;5022818;28;20041;-78
2022/07/04 03:27:40;;;;;;;5.78;3.85;;;;;;;20.60;51.55;94145.41;5019826;28;20040;-79
2022/07/04 03:30:06;;;;;;;6.30;3.97;;;;;;;20.72;51.64;94149.03;5020658;28;20045;-78
2022/07/04 03:32:31;;;;;;;5.07;3.97;;;;;;;20.89;51.17;94159.28;5019922;28;20018;-78
2022/07/04 03:34:57;;;;;;;5.30;4.10;;;;;;;20.85;50.80;94145.69;5022069;28;20931;-77
2022/07/04 03:37:22;;;;;;;4.57;3.78;;;;;;;20.48;50.61;94077.34;5020253;28;20037;-78
2022/07/04 03:39:47;;;;;;;5.80;3.92;;;;;;;20.86;50.50;94136.44;5021163;28;20034;-77
2022/07/04 03:42:13;;;;;;;7.18;4.53;;;;;;;20.99;50.50;94150.50;5019920;28;20057;-78
2022/07/04 03:44:38;;;;;;;6.60;5.13;;;;;;;21.07;50.82;94154.81;5037575;28;20341;-78
2022/07/04 03:47:04;;;;;;;4.70;4.13;;;;;;;21.08;51.29;94159.09;5021763;28;20040;-78
2022/07/04 03:49:29;;;;;;;4.15;3.75;;;;;;;21.16;51.00;94158.03;5022315;28;20045;-79
2022/07/04 03:51:54;;;;;;;7.25;3.95;;;;;;;21.16;50.36;94138.31;5022425;28;20151;-77
2022/07/04 03:54:20;;;;;;;4.55;3.53;;;;;;;21.22;49.20;94137.59;5023033;28;20057;-78
2022/07/04 03:56:46;;;;;;;4.68;3.80;;;;;;;21.36;48.85;94148.53;5023582;28;20025;-78
2022/07/04 03:59:11;;;;;;;5.13;3.65;;;;;;;21.44;50.10;94154.81;5022222;28;20033;-77
2022/07/04 04:01:36;;;;;;;5.45;3.63;;;;;;;21.32;48.26;94136.91;5037053;28;20057;-77
2022/07/04 04:06:47;;;;;;;3.33;3.03;;;;;;;21.48;47.65;94144.00;5022326;28;20121;-77
2022/07/04 04:09:16;;;;;;;7.20;4.00;;;;;;;21.45;48.08;94127.38;5023295;28;20053;-78
2022/07/04 04:11:45;;;;;;;5.05;3.90;;;;;;;21.51;47.25;94143.28;5025027;28;20114;-77
2022/07/04 04:14:11;;;;;;;4.53;4.13;;;;;;;21.43;47.72;94121.56;5023026;28;20030;-79
2022/07/04 04:16:36;;;;;;;4.32;3.90;;;;;;;21.53;48.57;94152.56;5022667;28;20029;-79
2022/07/04 04:19:02;;;;;;;4.85;4.30;;;;;;;21.40;48.31;94138.53;5027391;28;20030;-77
2022/07/04 04:21:28;;;;;;;5.00;4.47;;;;;;;21.18;48.50;94134.06;5022299;28;20418;-77
2022/07/04 04:23:53;;;;;;;6.70;4.40;;;;;;;21.44;48.44;94155.59;5021595;28;20034;-77
2022/07/04 04:26:18;;;;;;;8.45;5.20;;;;;;;21.31;48.83;94162.44;5022637;28;20033;-78
2022/07/04 04:28:44;;;;;;;7.60;5.38;;;;;;;21.53;48.84;94162.59;5024556;28;20071;-77
2022/07/04 04:31:09;;;;;;;5.18;4.65;;;;;;;21.23;48.06;94149.19;5022155;28;20060;-78
2022/07/04 04:33:35;;;;;;;6.00;4.95;;;;;;;21.09;48.54;94159.88;5025662;28;20056;-77
2022/07/04 04:36:01;;;;;;;6.65;5.00;;;;;;;21.00;48.70;94163.66;5025045;28;20041;-78
2022/07/04 04:38:27;;;;;;;4.88;4.38;;;;;;;21.13;47.57;94163.38;5026398;28;20051;-77
2022/07/04 04:40:52;;;;;;;5.80;4.10;;;;;;;21.22;47.55;94178.16;5022184;28;20036;-77
2022/07/04 04:43:18;;;;;;;5.57;3.92;;;;;;;21.20;47.05;94185.09;5024846;28;20034;-78
2022/07/04 04:45:43;;;;;;;6.95;4.70;;;;;;;21.29;46.83;94172.06;5023023;28;20453;-78
2022/07/04 04:48:09;;;;;;;7.80;4.50;;;;;;;21.35;46.85;94157.03;5023747;28;20490;-78
2022/07/04 04:50:35;;;;;;;8.90;4.75;;;;;;;21.51;46.57;94160.25;5021432;28;20076;-77
2022/07/04 04:53:02;;;;;;;5.35;4.03;;;;;;;21.60;46.48;94168.13;5022354;28;20053;-78
2022/07/04 04:55:27;;;;;;;4.60;4.05;;;;;;;21.40;46.50;94116.13;5034347;28;20068;-78
2022/07/04 04:57:53;;;;;;;4.75;3.83;;;;;;;21.71;45.71;94166.25;5023057;28;20037;-77
2022/07/04 05:00:18;;;;;;;5.50;4.05;;;;;;;21.71;45.32;94163.53;5020302;28;20119;-78
2022/07/04 05:02:44;;;;;;;3.83;3.47;;;;;;;21.85;45.46;94174.50;5023166;28;20072;-77
2022/07/04 05:05:10;;;;;;;7.40;4.40;;;;;;;21.90;45.63;94168.75;5020292;28;20033;-77
2022/07/04 05:07:35;;;;;;;6.13;4.22;;;;;;;21.56;45.02;94124.00;5024936;28;20046;-79
2022/07/04 05:10:01;;;;;;;5.75;3.63;;;;;;;21.59;45.30;94166.56;5020350;28;20099;-79
2022/07/04 05:12:27;;;;;;;9.40;4.50;;;;;;;21.80;45.42;94161.31;5027217;28;20038;-78
2022/07/04 05:14:53;;;;;;;4.40;3.65;;;;;;;22.15;44.05;94161.53;5022314;28;20051;-79
2022/07/04 05:17:19;;;;;;;7.90;4.13;;;;;;;22.35;44.48;94169.41;5031781;28;20393;-78
2022/07/04 05:19:44;;;;;;;4.90;3.78;;;;;;;22.28;44.91;94143.88;5030291;28;20078;-78
2022/07/04 05:22:13;;;;;;;8.35;4.50;;;;;;;21.97;44.00;94163.38;5028924;28;20080;-79
2022/07/04 05:24:39;;;;;;;5.57;3.60;;;;;;;22.37;43.89;94167.13;5030122;28;20034;-79
2022/07/04 05:27:06;;;;;;;5.40;3.78;;;;;;;22.37;43.19;94150.88;5043785;28;20048;-79
2022/07/04 05:29:31;;;;;;;4.40;3.78;;;;;;;22.61;44.07;94167.25;5031295;28;20017;-79
2022/07/04 05:31:56;;;;;;;5.43;3.58;;;;;;;22.78;43.48;94163.03;5031804;28;20033;-78
2022/07/04 05:34:22;;;;;;;4.47;3.55;;;;;;;22.73;42.97;94139.03;5030166;28;20037;-80
2022/07/04 05:36:47;;;;;;;5.13;4.00;;;;;;;22.66;41.76;94164.16;5035459;28;20397;-79
2022/07/04 05:39:13;;;;;;;5.65;4.18;;;;;;;22.06;42.49;94147.56;5029084;28;20046;-78
2022/07/04 05:41:38;;;;;;;6.25;3.88;;;;;;;22.17;43.61;94172.00;5032657;28;20025;-77
2022/07/04 05:44:04;;;;;;;6.85;3.63;;;;;;;22.34;44.47;94152.38;5031732;28;20049;-79
2022/07/04 05:46:29;;;;;;;5.22;3.33;;;;;;;22.56;42.99;94153.28;5030144;28;20038;-78
2022/07/04 05:48:55;;;;;;;5.90;3.70;;;;;;;22.60;42.00;94154.84;5027347;28;20057;-78
2022/07/04 05:51:20;;;;;;;9.05;4.22;;;;;;;22.53;42.70;94151.34;5040117;28;20033;-79
2022/07/04 05:53:46;;;;;;;8.95;3.58;;;;;;;22.48;42.59;94160.63;5028528;28;20353;-78
2022/07/04 05:56:11;;;;;;;4.63;3.03;;;;;;;22.55;43.51;94166.06;5026563;28;20021;-78
2022/07/04 05:58:36;;;;;;;4.30;3.90;;;;;;;22.85;42.04;94159.59;5028728;28;20030;-78
2022/07/04 06:01:03;;;;;;;3.90;3.25;;;;;;;22.85;43.17;94159.59;5031521;28;20034;-79
2022/07/04 06:03:28;;;;;;;5.82;3.60;;;;;;;22.25;42.71;94160.84;5031877;28;20041;-79
2022/07/04 06:05:54;;;;;;;4.70;3.75;;;;;;;22.53;42.86;94186.56;5030020;28;20052;-78
2022/07/04 06:08:19;;;;;;;5.53;3.40;;;;;;;22.81;42.46;94164.22;5026118;28;20642;-80
2022/07/04 06:10:46;;;;;;;5.22;3.47;;;;;;;23.14;42.78;94181.00;5017207;28;20045;-80
2022/07/04 06:13:11;;;;;;;4.95;3.88;;;;;;;23.34;43.62;94177.97;5015281;28;20132;-80
2022/07/04 06:15:37;;;;;;;5.25;3.30;;;;;;;23.14;41.46;94158.53;5017504;28;20033;-78
2022/07/04 06:18:02;;;;;;;6.40;3.20;;;;;;;23.32;41.84;94162.06;5030754;28;20049;-78
2022/07/04 06:20:29;;;;;;;3.90;2.80;;;;;;;23.40;41.79;94152.00;5036193;28;20548;-78
2022/07/04 06:22:55;;;;;;;5.40;4.20;;;;;;;23.69;40.88;94180.75;5037090;28;20097;-79
2022/07/04 06:25:20;;;;;;;4.63;2.97;;;;;;;23.78;41.16;94155.91;5035865;28;20041;-79
2022/07/04 06:27:48;;;;;;;4.00;3.15;;;;;;;24.04;41.23;94171.03;5036403;28;20033;-79
2022/07/04 06:30:14;;;;;;;4.93;3.30;;;;;;;24.04;41.23;94157.47;5037931;28;20519;-78
2022/07/04 06:32:52;;;;;;;4.22;3.60;;;;;;;24.09;41.30;94159.78;5036516;28;20032;-78
2022/07/04 06:38:04;;;;;;;5.55;4.05;;;;;;;23.97;40.78;94169.88;5038353;28;20052;-78
2022/07/04 06:40:30;;;;;;;4.40;3.45;;;;;;;23.92;41.23;94170.25;5039614;28;20034;-78
2022/07/04 06:42:55;;;;;;;3.78;3.38;;;;;;;23.51;40.84;94133.81;5036574;28;20030;-79
2022/07/04 06:45:20;;;;;;;3.42;2.97;;;;;;;23.60;40.23;94122.56;5036736;28;20056;-79
2022/07/04 06:47:46;;;;;;;4.13;3.63;;;;;;;23.67;41.24;94120.59;5037335;28;20042;-78
2022/07/04 06:50:12;;;;;;;6.25;3.53;;;;;;;23.99;40.87;94173.00;5037456;28;20037;-78
2022/07/04 06:52:38;;;;;;;5.78;3.00;;;;;;;24.28;40.71;94156.66;5036857;28;20029;-79
2022/07/04 06:55:05;;;;;;;6.70;4.05;;;;;;;24.27;41.13;94160.53;5038213;28;20029;-78
2022/07/04 06:57:30;;;;;;;3.85;3.50;;;;;;;23.83;41.55;94169.09;5036465;28;20124;-78
2022/07/04 06:59:55;;;;;;;4.25;3.40;;;;;;;23.72;42.14;94162.88;5036569;28;20041;-78
2022/07/04 07:02:21;;;;;;;6.38;3.60;;;;;;;23.28;42.45;94133.34;5034350;28;20045;-79
2022/07/04 07:04:46;;;;;;;4.63;3.80;;;;;;;23.72;43.89;94138.44;5035134;28;20105;-79
2022/07/04 07:07:11;;;;;;;5.60;4.03;;;;;;;24.12;42.84;94148.16;5035505;28;20331;-79
2022/07/04 07:09:37;;;;;;;5.43;4.75;;;;;;;24.39;41.93;94158.16;5034804;28;20341;-80
2022/07/04 07:12:03;;;;;;;4.53;3.72;;;;;;;24.19;41.83;94132.63;5032384;28;20045;-78
2022/07/04 07:14:29;;;;;;;6.13;3.90;;;;;;;24.40;41.74;94148.06;5036538;28;20044;-79
2022/07/04 07:16:55;;;;;;;5.00;3.90;;;;;;;24.17;41.16;94128.72;5035536;28;20041;-78
2022/07/04 07:19:20;;;;;;;5.18;4.05;;;;;;;24.18;43.24;94122.13;5034378;28;20045;-79
2022/07/04 07:21:45;;;;;;;4.78;3.95;;;;;;;24.41;41.89;94117.00;5036116;28;20033;-78
2022/07/04 07:24:11;;;;;;;9.82;4.25;;;;;;;24.20;42.45;94057.31;5035018;28;20049;-79
2022/07/04 07:26:36;;;;;;;4.30;3.58;;;;;;;24.82;41.44;94118.06;5032390;28;20021;-78
2022/07/04 07:29:02;;;;;;;5.05;3.65;;;;;;;24.91;41.65;94116.84;5047297;28;20024;-80
2022/07/04 07:31:27;;;;;;;8.30;4.10;;;;;;;25.06;41.32;94123.75;5031929;28;20093;-78
2022/07/04 07:33:53;;;;;;;4.63;4.05;;;;;;;25.26;39.90;94141.13;5033084;28;20076;-78
2022/07/04 07:36:18;;;;;;;6.07;3.50;;;;;;;25.00;40.12;94125.31;5036956;28;20034;-78
2022/07/04 07:38:44;;;;;;;7.82;4.22;;;;;;;24.83;40.14;94119.56;5032774;28;20037;-79
2022/07/04 07:41:10;;;;;;;7.28;3.97;;;;;;;24.50;41.32;94111.94;5032151;28;20024;-78
2022/07/04 07:43:36;;;;;;;4.70;4.07;;;;;;;25.00;41.47;94128.03;5032681;28;20053;-79
2022/07/04 07:46:06;;;;;;;5.25;3.53;;;;;;;25.09;40.38;94117.50;5034325;28;20044;-79
2022/07/04 07:48:32;;;;;;;10.10;3.75;;;;;;;25.28;40.10;94138.75;5032299;28;20034;-78
2022/07/04 07:50:57;;;;;;;6.93;4.07;;;;;;;25.36;39.66;94120.47;5047797;28;20041;-78
2022/07/04 07:53:23;;;;;;;10.77;3.63;;;;;;;25.52;39.38;94134.34;5032136;28;20081;-78
2022/07/04 07:55:48;;;;;;;8.05;3.88;;;;;;;25.24;40.10;94108.84;5032743;28;20069;-78
2022/07/04 07:58:14;;;;;;;5.60;3.60;;;;;;;25.46;40.47;94120.41;5032452;28;20251;-78
2022/07/04 08:00:39;;;;;;;6.13;3.97;;;;;;;25.45;40.21;94105.25;5033284;28;20044;-78
2022/07/04 08:05:49;;;;;;;4.00;3.50;;;;;;;25.88;38.13;94124.72;5031513;28;20036;-79
2022/07/04 08:08:14;;;;;;;4.05;3.60;;;;;;;25.69;39.28;94096.09;5030347;28;20062;-79
2022/07/04 08:10:40;;;;;;;5.93;3.60;;;;;;;25.91;39.00;94118.47;5030916;28;20045;-80
2022/07/04 08:13:05;;;;;;;4.68;3.47;;;;;;;25.81;38.75;94107.69;5036207;28;20030;-78
2022/07/04 08:15:31;;;;;;;7.18;3.72;;;;;;;25.91;38.92;94120.47;5030257;28;20030;-78
2022/07/04 08:17:57;;;;;;;5.53;3.72;;;;;;;25.52;38.69;94121.50;5031499;28;20041;-79
2022/07/04 08:20:22;;;;;;;7.05;3.63;;;;;;;25.63;39.35;94116.75;5028641;28;20021;-79
2022/07/04 08:22:47;;;;;;;7.40;3.30;;;;;;;25.74;39.33;94119.41;5033199;28;20052;-78
2022/07/04 08:25:14;;;;;;;4.55;3.95;;;;;;;25.70;38.72;94094.91;5030942;28;20547;-79
2022/07/04 08:27:40;;;;;;;3.92;3.35;;;;;;;25.71;39.70;94123.69;5030638;28;20034;-79
2022/07/04 08:30:06;;;;;;;9.43;4.50;;;;;;;25.88;39.54;94113.81;5030951;28;20057;-79
2022/07/04 08:32:32;;;;;;;5.88;3.90;;;;;;;25.94;39.38;94109.53;5047719;28;20033;-79
2022/07/04 08:34:57;;;;;;;8.18;4.43;;;;;;;25.90;40.45;94094.38;5034722;28;20037;-78
2022/07/04 08:37:23;;;;;;;6.78;3.88;;;;;;;25.70;39.52;94110.50;5028952;28;20091;-80
2022/07/04 08:39:49;;;;;;;4.85;4.22;;;;;;;25.54;39.30;94089.22;5032935;28;20038;-78
2022/07/04 08:42:20;;;;;;;4.88;3.83;;;;;;;25.78;39.38;94103.00;5030358;28;20572;-78
2022/07/04 08:44:50;;;;;;;5.03;4.53;;;;;;;25.78;38.82;94082.00;5047151;28;20021;-78
2022/07/04 08:47:22;;;;;;;6.40;4.72;;;;;;;25.83;39.20;94091.69;5027681;28;20024;-79
2022/07/04 08:50:10;;;;;;;5.93;4.25;;;;;;;25.83;39.10;94088.97;5035367;28;20060;-78
2022/07/04 08:52:36;;;;;;;5.55;4.68;;;;;;;25.96;38.73;94104.41;5031098;28;20037;-78
2022/07/04 09:00:34;;;;;;;5.13;4.40;;;;;;;25.69;41.04;94082.47;5030747;28;20058;-78
2022/07/04 09:03:02;;;;;;;6.45;4.57;;;;;;;25.81;40.41;94064.09;5030851;28;20045;-79
2022/07/04 09:05:27;;;;;;;6.15;4.30;;;;;;;25.97;41.09;94076.00;5027727;28;20021;-78
2022/07/04 09:07:54;;;;;;;5.85;3.83;;;;;;;26.01;39.83;94082.19;5029300;28;20044;-79
2022/07/04 09:10:21;;;;;;;5.25;4.57;;;;;;;26.17;39.13;94097.22;5032020;28;20038;-77
2022/07/04 09:12:47;;;;;;;6.65;4.53;;;;;;;26.01;39.24;94067.78;5029688;28;20030;-78
2022/07/04 09:15:15;;;;;;;6.53;5.05;;;;;;;26.00;40.71;94063.53;5029266;28;20103;-79
2022/07/04 09:17:40;;;;;;;5.88;4.50;;;;;;;26.06;39.99;94070.06;5028922;28;20037;-80
2022/07/04 09:20:21;;;;;;;4.90;4.40;;;;;;;26.14;39.86;94098.81;5029959;28;20030;-77
2022/07/04 09:22:49;;;;;;;5.07;4.47;;;;;;;25.93;40.05;94074.50;5029349;28;20041;-78
2022/07/04 09:25:16;;;;;;;8.60;4.93;;;;;;;25.86;39.97;94082.72;5033226;28;20038;-79
2022/07/04 09:27:44;;;;;;;8.25;4.45;;;;;;;26.03;39.97;94093.47;5014195;28;20041;-79
2022/07/04 09:30:11;;;;;;;6.03;4.90;;;;;;;26.00;38.79;94091.56;5036743;28;20025;-78
2022/07/04 09:32:42;;;;;;;8.07;5.03;;;;;;;26.05;39.03;94082.16;5034673;28;20024;-78
2022/07/04 09:35:13;;;;;;;5.93;4.60;;;;;;;26.21;39.22;94081.59;5034662;28;20039;-78
2022/07/04 09:37:41;;;;;;;4.65;4.18;;;;;;;26.11;38.63;94051.31;5033891;28;20037;-78
2022/07/04 09:40:19;;;;;;;4.88;4.05;;;;;;;26.25;39.79;94066.75;5032647;28;20127;-78
2022/07/04 09:42:45;;;;;;;6.80;6.10;;;;;;;26.19;39.45;94071.13;5036159;28;20059;-78
2022/07/04 09:45:11;;;;;;;7.82;4.65;;;;;;;26.40;39.39;94070.84;5040111;28;20208;-78
2022/07/04 09:47:39;;;;;;;6.07;4.82;;;;;;;26.53;39.84;94082.03;5036482;28;20029;-78
2022/07/04 09:50:12;;;;;;;5.97;4.90;;;;;;;26.50;39.96;94080.88;5036799;28;20030;-78
2022/07/04 09:52:54;;;;;;;8.30;6.13;;;;;;;26.53;41.09;94080.09;5037561;28;20399;-78
2022/07/04 09:55:22;;;;;;;6.05;5.45;;;;;;;26.63;40.81;94077.63;5051656;28;20042;-78
2022/07/04 09:57:48;;;;;;;8.13;4.75;;;;;;;26.58;39.33;94067.97;5039449;28;20094;-79
2022/07/04 10:00:24;;;;;;;10.93;5.35;;;;;;;26.65;40.22;94086.94;5038898;28;20054;-78
2022/07/04 10:02:50;;;;;;;6.15;5.55;;;;;;;26.75;39.36;94088.75;5038531;28;20047;-78
2022/07/04 10:05:27;;;;;;;5.20;4.60;;;;;;;26.72;39.98;94073.22;5036494;28;20033;-77
2022/07/04 10:07:57;;;;;;;5.18;4.68;;;;;;;26.60;39.92;94070.25;5036310;28;20091;-78
2022/07/04 10:10:24;;;;;;;5.70;5.20;;;;;;;26.87;39.24;94080.03;5038188;28;20041;-78
2022/07/04 10:12:51;;;;;;;6.93;5.22;;;;;;;26.84;39.80;94075.38;5038207;28;20075;-78
2022/07/04 10:15:17;;;;;;;5.43;4.93;;;;;;;26.79;39.76;94064.94;5036705;28;20482;-77
2022/07/04 10:17:43;;;;;;;8.10;5.30;;;;;;;26.82;39.52;94061.41;5037725;28;20116;-78
2022/07/04 10:20:10;;;;;;;10.13;5.20;;;;;;;26.84;39.91;94072.66;5040270;28;20021;-78
2022/07/04 10:22:37;;;;;;;4.88;4.47;;;;;;;27.05;40.41;94085.28;5039864;28;20622;-78
2022/07/04 10:25:03;;;;;;;5.63;5.05;;;;;;;27.12;41.43;94085.19;5042675;28;20029;-79
2022/07/04 10:27:30;;;;;;;6.65;4.50;;;;;;;27.01;39.27;94056.47;5047449;28;20094;-78
2022/07/04 10:29:56;;;;;;;5.53;4.97;;;;;;;27.26;39.07;94079.50;5044746;28;20029;-77
2022/07/04 10:32:22;;;;;;;5.53;4.95;;;;;;;27.20;38.82;94059.31;5040627;28;20026;-78
2022/07/04 10:34:47;;;;;;;5.82;4.88;;;;;;;27.21;38.40;94057.34;5038936;28;20041;-79
2022/07/04 10:37:13;;;;;;;6.47;5.00;;;;;;;27.33;37.96;94057.53;5038865;28;20063;-78
2022/07/04 10:39:38;;;;;;;6.15;5.32;;;;;;;27.28;38.43;94063.47;5051833;28;20106;-78
2022/07/04 10:42:06;;;;;;;5.13;4.63;;;;;;;27.36;37.56;94059.47;5038691;28;20042;-78
2022/07/04 10:44:37;;;;;;;5.70;5.20;;;;;;;27.29;39.74;94058.78;5039495;28;20025;-78
2022/07/04 10:47:04;;;;;;;5.93;5.32;;;;;;;27.34;38.81;94053.63;5040583;28;20041;-79
2022/07/04 10:49:30;;;;;;;5.43;4.90;;;;;;;27.16;41.09;94025.06;5038877;28;20052;-78
2022/07/04 10:52:07;;;;;;;5.55;4.95;;;;;;;27.36;38.19;94073.13;5035215;28;20044;-79
2022/07/04 10:54:35;;;;;;;5.55;4.82;;;;;;;27.45;37.86;94063.63;5033456;28;20141;-78
2022/07/04 10:57:10;;;;;;;4.70;4.00;;;;;;;27.54;38.48;94061.13;5032650;28;20379;-79
2022/07/04 10:59:36;;;;;;;8.25;5.60;;;;;;;27.56;39.72;94037.72;5037821;28;20041;-78
2022/07/04 11:02:08;;;;;;;5.72;5.13;;;;;;;27.81;36.88;94053.69;5030310;28;20467;-79
2022/07/04 11:05:00;;;;;;;5.50;5.00;;;;;;;27.78;37.36;94049.81;5032660;28;20064;-79
2022/07/04 11:07:35;;;;;;;5.03;4.63;;;;;;;27.78;37.75;94049.03;5037290;28;20065;-79
2022/07/04 11:12:54;;;;;;;5.47;4.88;;;;;;;27.73;37.93;94041.31;5031462;28;19987;-78
2022/07/04 11:15:41;;;;;;;6.25;5.35;;;;;;;27.86;37.04;94047.72;5029990;28;20048;-78
2022/07/04 11:18:14;;;;;;;4.95;4.45;;;;;;;27.89;41.22;94038.69;5019597;28;20405;-78
2022/07/04 11:20:45;;;;;;;5.60;5.05;;;;;;;27.76;37.29;94032.28;5033234;28;20033;-79
2022/07/04 11:23:11;;;;;;;5.25;4.75;;;;;;;27.86;36.97;94038.75;5033291;28;20041;-78
2022/07/04 11:25:39;;;;;;;6.03;4.60;;;;;;;27.77;36.87;94020.94;5030657;28;20262;-79
2022/07/04 11:28:25;;;;;;;5.75;4.53;;;;;;;27.88;37.12;94037.13;5029136;28;20049;-78
2022/07/04 11:30:54;;;;;;;4.82;4.35;;;;;;;27.85;36.09;94037.97;5036921;28;20033;-78
2022/07/04 11:33:22;;;;;;;9.10;5.15;;;;;;;27.78;36.14;94027.16;5031189;28;20104;-79
2022/07/04 11:36:07;;;;;;;4.97;4.47;;;;;;;27.50;36.71;93976.50;5029931;28;20025;-78
2022/07/04 11:38:49;;;;;;;6.55;4.82;;;;;;;28.00;36.75;94033.81;5030317;28;20033;-79
2022/07/04 11:46:48;;;;;;;5.60;5.00;;;;;;;27.81;39.20;94020.88;5030411;28;20060;-78
2022/07/04 11:49:14;;;;;;;5.10;4.60;;;;;;;27.87;36.33;94013.72;5029520;28;20034;-78
2022/07/04 11:51:46;;;;;;;5.30;4.80;;;;;;;27.59;37.44;93962.34;5028394;28;20460;-79
2022/07/04 11:54:12;;;;;;;6.15;5.13;;;;;;;27.88;37.88;94007.06;5028923;28;20037;-78
2022/07/04 11:56:37;;;;;;;6.13;4.50;;;;;;;27.79;37.58;93963.13;5029859;28;20497;-78
2022/07/04 11:59:14;;;;;;;8.55;5.13;;;;;;;27.98;38.08;93973.31;5028493;28;20025;-79